Hood River, OR

2:20 PM PST on December 20, 2014 (GMT -0800)
MesoWest Hood River Airport AWOS OR US PDTWFO | Change Station
CLOSE
Current Station
Personal Weather Station
Location: Hood River, OR
Elevation: 629 ft
Nearby Weather Stations
Active Advisory: Areal Flood Watch

Elev 629 ft 45.67 °N, 121.54 °W | Updated 1 hour ago

Rain
Rain
41 °F
Feels Like 41 °F
N
0
Wind Variable Wind from North
Gusts 0.0 mph

Today
High -- | Low -- °F
--% Chance of Precip.
Yesterday
High -- | Low -- °F
Precip. -- in
7:43 AM 4:24 PM
Waning Crescent, 2% visible
Pressure 29.71 in
Visibility 7.0 miles
Clouds Overcast 800 ft
Windchill 41 °F
Dew Point 39 °F
Humidity 93%
Rainfall -999.00 in
Snow Depth Not available.
UV 0 out of 12
Pollen .50 out of 12
Air Quality Not available.
Flu Activity Not available.
METAR KDLS 202153Z AUTO 00000KT 7SM -RA OVC008 06/05 A2970 RMK AO2 CIG 004V011 SLP059 P0004 T00610050

More Conditions Fewer Conditions

Pressure 29.71 in
Visibility 7.0 miles
Clouds Overcast 800 ft
Windchill 41 °F
Dew Point 39 °F
Humidity 93%
Rainfall -999.00 in
Snow Depth Not available.
UV 0 out of 12
Pollen .50 out of 12
Air Quality Not available.
Flu Activity Not available.
METAR KDLS 202153Z AUTO 00000KT 7SM -RA OVC008 06/05 A2970 RMK AO2 CIG 004V011 SLP059 P0004 T00610050

More Conditions Fewer Conditions

10-Day Weather Forecast

Almanac

Astronomy

Dec. 20, 2014 Rise Set
Actual Time
Civil Twilight
Nautical Twilight
Astronomical Twilight
Moon
Length of Visible Light
Length of Day
Tomorrow will be .
, % of the Moon is Illuminated

Today's Extremes

State Highs State Lows

Community

WunderPhotos

Upload Photos

1,779,291 photos uploaded!

WunderBlogs® & News

Nearby

Air Quality

  Air Quality AQ Index Pollutant
Not available.

Snow Depth

Station Depth Elevation

Earthquake Activity

City Distance Mag. Time & Date
Minimum magnitude displayed is 2.5.

Coastal Water Temperatures

Place Temperature

Nearby Weather Stations